createdAt,value
2024-02-24T00:01:19.512Z,98457.56
2024-02-24T00:03:47.244Z,98451.31
2024-02-24T00:06:14.827Z,98445.59
2024-02-24T00:08:43.471Z,98444.25
2024-02-24T00:11:11.441Z,98441.28
2024-02-24T00:13:38.877Z,98445.41
2024-02-24T00:16:06.601Z,98438.94
2024-02-24T00:18:34.936Z,98439.00
2024-02-24T00:21:02.363Z,98447.81
2024-02-24T00:23:30.803Z,98452.81
2024-02-24T00:25:58.542Z,98457.41
2024-02-24T00:28:26.040Z,98453.06
2024-02-24T00:30:53.557Z,98445.84
2024-02-24T00:33:21.263Z,98443.53
2024-02-24T00:35:48.740Z,98458.66
2024-02-24T00:38:16.245Z,98458.66
2024-02-24T00:40:44.118Z,98451.56
2024-02-24T00:43:11.591Z,98456.75
2024-02-24T00:45:39.170Z,98447.16
2024-02-24T00:48:07.199Z,98456.63
2024-02-24T00:50:34.657Z,98451.22
2024-02-24T00:53:02.176Z,98446.25
2024-02-24T00:55:30.008Z,98444.44
2024-02-24T00:57:57.442Z,98441.81
2024-02-24T01:00:24.884Z,98442.47
2024-02-24T01:02:52.644Z,98436.22
2024-02-24T01:05:20.329Z,98441.00
2024-02-24T01:07:47.921Z,98440.84
2024-02-24T01:10:15.806Z,98425.09
2024-02-24T01:12:43.298Z,98427.28
2024-02-24T01:15:11.350Z,98422.66
2024-02-24T01:17:39.306Z,98424.19
2024-02-24T01:20:07.540Z,98419.84
2024-02-24T01:22:34.965Z,98429.66
2024-02-24T01:25:02.724Z,98435.31
2024-02-24T01:27:30.235Z,98427.47
2024-02-24T01:29:57.632Z,98425.75
2024-02-24T01:32:25.368Z,98429.63
2024-02-24T01:34:52.828Z,98429.69
2024-02-24T01:37:20.289Z,98427.47
2024-02-24T01:39:48.048Z,98427.47
2024-02-24T01:42:15.534Z,98426.81
2024-02-24T01:44:43.059Z,98429.25
2024-02-24T01:47:10.790Z,98431.09
2024-02-24T01:49:39.340Z,98424.81
2024-02-24T01:52:07.499Z,98417.91
2024-02-24T01:54:36.303Z,98426.66
2024-02-24T01:57:06.729Z,98421.75
2024-02-24T01:59:34.560Z,98424.19
2024-02-24T02:02:02.017Z,98428.66
2024-02-24T02:04:29.766Z,98431.81
2024-02-24T02:06:58.338Z,98436.84
2024-02-24T02:09:26.839Z,98446.03
2024-02-24T02:12:02.848Z,98446.19
2024-02-24T02:14:31.352Z,98447.75
2024-02-24T02:16:59.047Z,98444.19
2024-02-24T02:19:26.466Z,98438.13
2024-02-24T02:21:54.081Z,98441.75
2024-02-24T02:24:21.797Z,98454.03
2024-02-24T02:26:49.294Z,98452.50
2024-02-24T02:29:16.897Z,98454.13
2024-02-24T02:31:44.621Z,98451.31
2024-02-24T02:34:12.109Z,98460.28
2024-02-24T02:36:39.587Z,98454.47
2024-02-24T02:39:07.258Z,98468.00
2024-02-24T02:41:34.718Z,98472.31
2024-02-24T02:44:02.156Z,98481.06
2024-02-24T02:46:29.821Z,98469.19
2024-02-24T02:48:57.450Z,98469.78
2024-02-24T02:51:25.018Z,98470.19
2024-02-24T02:53:52.917Z,98474.00
2024-02-24T02:56:22.240Z,98463.56
2024-02-24T02:58:49.778Z,98475.50
2024-02-24T03:01:17.526Z,98488.25
2024-02-24T03:03:44.972Z,98491.16
2024-02-24T03:06:12.565Z,98504.81
2024-02-24T03:08:40.544Z,98507.16
2024-02-24T03:11:17.320Z,98509.84
2024-02-24T03:13:45.489Z,98521.09
2024-02-24T03:16:12.912Z,98530.37
2024-02-24T03:18:41.795Z,98535.31
2024-02-24T03:21:09.503Z,98540.66
2024-02-24T03:23:37.099Z,98549.59
2024-02-24T03:26:04.840Z,98548.78
2024-02-24T03:28:32.638Z,98546.72
2024-02-24T03:31:00.051Z,98552.25
2024-02-24T03:33:27.706Z,98548.09
2024-02-24T03:35:55.673Z,98552.94
2024-02-24T03:38:23.177Z,98542.28
2024-02-24T03:40:50.603Z,98547.44
2024-02-24T03:43:18.313Z,98563.53
2024-02-24T03:45:45.820Z,98565.22
2024-02-24T03:48:13.507Z,98565.22
2024-02-24T03:50:41.298Z,98566.28
2024-02-24T03:53:08.714Z,98572.22
2024-02-24T03:55:36.207Z,98570.56
2024-02-24T03:58:03.982Z,98574.06
2024-02-24T04:00:36.213Z,98572.19
2024-02-24T04:03:04.598Z,98583.28
2024-02-24T04:05:32.125Z,98581.03
2024-02-24T04:08:00.143Z,98590.81
2024-02-24T04:10:27.862Z,98584.44
2024-02-24T04:12:55.314Z,98583.56
2024-02-24T04:15:23.465Z,98583.16
2024-02-24T04:17:51.335Z,98582.53
2024-02-24T04:20:19.062Z,98583.78
2024-02-24T04:22:46.643Z,98591.44
2024-02-24T04:25:14.525Z,98589.44
2024-02-24T04:27:41.904Z,98587.56
2024-02-24T04:30:09.510Z,98578.03
2024-02-24T04:32:37.391Z,98574.75
2024-02-24T04:35:05.256Z,98583.56
2024-02-24T04:37:32.776Z,98584.00
2024-02-24T04:40:00.477Z,98595.03
2024-02-24T04:42:27.876Z,98587.66
2024-02-24T04:44:55.401Z,98594.00
2024-02-24T04:47:24.708Z,98590.25
2024-02-24T04:49:52.577Z,98583.03
2024-02-24T04:52:20.628Z,98583.44
2024-02-24T04:54:48.381Z,98593.06
2024-02-24T04:57:15.847Z,98593.69
2024-02-24T04:59:43.552Z,98599.66
2024-02-24T05:02:11.451Z,98590.19
2024-02-24T05:04:38.941Z,98584.19
2024-02-24T05:07:06.494Z,98594.69
2024-02-24T05:09:34.326Z,98587.62
2024-02-24T05:12:01.950Z,98598.78
2024-02-24T05:14:29.602Z,98594.72
2024-02-24T05:16:57.432Z,98582.78
2024-02-24T05:19:24.888Z,98584.00
2024-02-24T05:21:52.430Z,98595.53
2024-02-24T05:24:20.276Z,98624.50
2024-02-24T05:26:47.931Z,98629.69
2024-02-24T05:29:17.527Z,98630.91
2024-02-24T05:31:45.346Z,98633.97
2024-02-24T05:34:12.850Z,98627.09
2024-02-24T05:36:41.860Z,98637.03
2024-02-24T05:39:10.634Z,98640.56
2024-02-24T05:41:38.229Z,98656.28
2024-02-24T05:44:05.728Z,98666.13
2024-02-24T05:46:33.378Z,98676.34
2024-02-24T05:49:01.013Z,98678.44
2024-02-24T05:51:28.749Z,98682.72
2024-02-24T05:53:57.195Z,98689.84
2024-02-24T05:56:24.625Z,98689.84
2024-02-24T05:58:52.149Z,98683.69
2024-02-24T06:01:19.970Z,98689.06
2024-02-24T06:03:47.857Z,98684.13
2024-02-24T06:06:15.577Z,98682.06
2024-02-24T06:08:43.171Z,98701.31
2024-02-24T06:11:11.159Z,98713.84
2024-02-24T06:13:38.811Z,98727.91
2024-02-24T06:16:07.974Z,98728.78
2024-02-24T06:18:35.926Z,98724.47
2024-02-24T06:21:03.570Z,98714.75
2024-02-24T06:23:31.558Z,98721.00
2024-02-24T06:25:59.436Z,98729.44
2024-02-24T06:28:26.881Z,98725.09
2024-02-24T06:30:54.320Z,98728.78
2024-02-24T06:33:22.174Z,98733.97
2024-02-24T06:35:49.854Z,98730.84
2024-02-24T06:38:18.214Z,98733.09
2024-02-24T06:40:46.812Z,98742.75
2024-02-24T06:43:14.657Z,98752.00
2024-02-24T06:45:42.339Z,98757.66
2024-02-24T06:48:10.393Z,98761.59
2024-02-24T06:50:38.056Z,98769.09
2024-02-24T06:53:05.836Z,98771.78
2024-02-24T06:55:33.594Z,98759.44
2024-02-24T06:58:01.076Z,98763.31
2024-02-24T07:00:28.959Z,98768.81
2024-02-24T07:02:56.860Z,98764.41
2024-02-24T07:05:24.533Z,98773.97
2024-02-24T07:07:52.063Z,98779.97
2024-02-24T07:10:19.768Z,98786.31
2024-02-24T07:12:47.511Z,98796.19
2024-02-24T07:15:14.966Z,98794.91
2024-02-24T07:17:43.889Z,98801.88
2024-02-24T07:20:12.182Z,98792.72
2024-02-24T07:22:39.843Z,98798.44
2024-02-24T07:25:07.610Z,98800.28
2024-02-24T07:27:35.762Z,98809.72
2024-02-24T07:30:03.198Z,98817.03
2024-02-24T07:32:31.072Z,98829.69
2024-02-24T07:34:59.926Z,98838.59
2024-02-24T07:37:27.411Z,98833.72
2024-02-24T07:39:55.156Z,98830.94
2024-02-24T07:42:22.660Z,98830.41
2024-02-24T07:44:50.218Z,98828.16
2024-02-24T07:47:18.827Z,98837.59
2024-02-24T07:49:46.766Z,98829.59
2024-02-24T07:52:14.304Z,98819.87
2024-02-24T07:54:42.080Z,98817.47
2024-02-24T07:57:09.570Z,98824.84
2024-02-24T07:59:36.977Z,98833.75
2024-02-24T08:02:04.834Z,98834.91
2024-02-24T08:04:32.536Z,98835.94
2024-02-24T08:06:59.972Z,98845.25
2024-02-24T08:09:27.441Z,98847.09
2024-02-24T08:11:55.412Z,98836.97
2024-02-24T08:14:22.980Z,98846.03
2024-02-24T08:16:50.453Z,98847.25
2024-02-24T08:19:18.388Z,98851.47
2024-02-24T08:21:45.913Z,98863.41
2024-02-24T08:24:17.607Z,98861.66
2024-02-24T08:26:46.520Z,98857.78
2024-02-24T08:29:14.047Z,98861.81
2024-02-24T08:31:43.901Z,98857.81
2024-02-24T08:34:12.211Z,98869.03
2024-02-24T08:36:40.030Z,98871.94
2024-02-24T08:39:07.727Z,98882.19
2024-02-24T08:41:37.885Z,98876.22
2024-02-24T08:44:05.857Z,98875.31
2024-02-24T08:46:33.237Z,98885.91
2024-02-24T08:49:01.027Z,98881.16
2024-02-24T08:51:28.527Z,98871.47
2024-02-24T08:53:56.050Z,98876.09
2024-02-24T08:56:24.140Z,98882.69
2024-02-24T08:58:51.654Z,98889.81
2024-02-24T09:01:22.289Z,98890.94
2024-02-24T09:03:50.160Z,98890.34
2024-02-24T09:06:17.758Z,98896.00
2024-02-24T09:08:45.374Z,98900.34
2024-02-24T09:11:13.395Z,98910.28
2024-02-24T09:13:40.906Z,98908.66
2024-02-24T09:16:08.300Z,98920.91
2024-02-24T09:18:36.100Z,98916.03
2024-02-24T09:21:03.696Z,98923.31
2024-02-24T09:23:31.185Z,98911.72
2024-02-24T09:25:59.240Z,98911.78
2024-02-24T09:28:26.694Z,98928.38
2024-02-24T09:30:54.128Z,98926.66
2024-02-24T09:33:22.107Z,98939.38
2024-02-24T09:35:49.741Z,98928.22
2024-02-24T09:38:17.405Z,98932.03
2024-02-24T09:40:45.189Z,98935.88
2024-02-24T09:43:13.172Z,98940.19
2024-02-24T09:45:43.522Z,98935.72
2024-02-24T09:48:12.013Z,98943.66
2024-02-24T09:50:40.245Z,98946.59
2024-02-24T09:53:08.385Z,98946.31
2024-02-24T09:55:36.762Z,98954.09
2024-02-24T09:58:04.533Z,98952.13
2024-02-24T10:00:32.023Z,98957.75
2024-02-24T10:02:59.766Z,98971.44
2024-02-24T10:05:27.421Z,98974.09
2024-02-24T10:07:56.724Z,98983.94
2024-02-24T10:10:29.383Z,98987.28
2024-02-24T10:12:57.783Z,98983.97
2024-02-24T10:15:26.199Z,98990.16
2024-02-24T10:18:03.371Z,98984.03
2024-02-24T10:20:31.012Z,98981.13
2024-02-24T10:22:59.228Z,98983.81
2024-02-24T10:25:26.661Z,98971.91
2024-02-24T10:27:54.031Z,98978.44
2024-02-24T10:30:24.294Z,98980.31
2024-02-24T10:32:54.053Z,98980.91
2024-02-24T10:35:22.027Z,98978.84
2024-02-24T10:38:03.920Z,98980.78
2024-02-24T10:40:37.408Z,98981.38
2024-02-24T10:43:05.763Z,98976.53
2024-02-24T10:45:33.243Z,98978.34
2024-02-24T10:48:01.248Z,98989.44
2024-02-24T10:50:29.301Z,98980.88
2024-02-24T10:52:56.815Z,98985.81
2024-02-24T10:55:24.604Z,98987.25
2024-02-24T10:57:52.988Z,98983.00
2024-02-24T11:00:33.327Z,98984.16
2024-02-24T11:03:01.545Z,98981.00
2024-02-24T11:05:29.246Z,98980.88
2024-02-24T11:07:56.865Z,98986.38
2024-02-24T11:10:33.078Z,98982.41
2024-02-24T11:13:01.884Z,98980.78
2024-02-24T11:15:29.552Z,98975.41
2024-02-24T11:17:59.004Z,98979.31
2024-02-24T11:20:47.273Z,98974.97
2024-02-24T11:23:30.607Z,98986.44
2024-02-24T11:26:10.195Z,98988.00
2024-02-24T11:28:38.408Z,98977.06
2024-02-24T11:31:05.814Z,98983.66
2024-02-24T11:33:38.763Z,98985.19
2024-02-24T11:36:07.543Z,98982.94
2024-02-24T11:38:35.303Z,98996.28
2024-02-24T11:41:06.661Z,98989.53
2024-02-24T11:43:34.869Z,98992.34
2024-02-24T11:46:03.529Z,98992.53
2024-02-24T11:48:32.266Z,99002.84
2024-02-24T11:51:00.222Z,99000.84
2024-02-24T11:53:27.683Z,98998.75
2024-02-24T11:55:55.501Z,99007.03
2024-02-24T11:58:23.312Z,99012.75
2024-02-24T12:00:50.770Z,99011.91
2024-02-24T12:03:18.500Z,99019.19
2024-02-24T12:05:46.299Z,99014.28
2024-02-24T12:08:19.595Z,99020.19
2024-02-24T12:10:47.445Z,99015.66
2024-02-24T12:13:15.225Z,99013.22
2024-02-24T12:15:44.415Z,99011.50
2024-02-24T12:18:12.653Z,99003.37
2024-02-24T12:20:41.703Z,99002.78
2024-02-24T12:23:10.163Z,99005.84
2024-02-24T12:25:37.949Z,99006.53
2024-02-24T12:28:05.933Z,99009.66
2024-02-24T12:30:41.240Z,99008.56
2024-02-24T12:33:17.983Z,99016.84
2024-02-24T12:35:48.348Z,99013.28
2024-02-24T12:38:18.541Z,99019.31
2024-02-24T12:40:46.186Z,99020.84
2024-02-24T12:43:13.791Z,99014.00
2024-02-24T12:45:41.630Z,99017.69
2024-02-24T12:48:09.627Z,99017.59
2024-02-24T12:50:37.445Z,99022.56
2024-02-24T12:53:06.364Z,99026.00
2024-02-24T12:55:34.093Z,99030.19
2024-02-24T12:58:01.723Z,99030.72
2024-02-24T13:00:29.412Z,99026.72
2024-02-24T13:03:00.300Z,99040.69
2024-02-24T13:05:28.080Z,99037.91
2024-02-24T13:07:56.013Z,99038.28
2024-02-24T13:10:23.626Z,99027.44
2024-02-24T13:12:51.136Z,99032.50
2024-02-24T13:15:18.909Z,99038.53
2024-02-24T13:17:46.405Z,99039.13
2024-02-24T13:20:13.974Z,99037.59
2024-02-24T13:22:42.549Z,99043.66
2024-02-24T13:25:10.229Z,99035.19
2024-02-24T13:27:38.005Z,99033.47
2024-02-24T13:30:06.544Z,99034.25
2024-02-24T13:32:34.304Z,99042.09
2024-02-24T13:35:01.944Z,99046.38
2024-02-24T13:37:29.738Z,99043.47
2024-02-24T13:39:57.139Z,99036.50
2024-02-24T13:42:24.530Z,99038.31
2024-02-24T13:44:52.352Z,99038.75
2024-02-24T13:47:19.851Z,99042.09
2024-02-24T13:49:47.354Z,99046.56
2024-02-24T13:52:15.078Z,99051.25
2024-02-24T13:54:42.479Z,99048.19
2024-02-24T13:57:09.913Z,99050.84
2024-02-24T13:59:37.693Z,99046.97
2024-02-24T14:02:05.190Z,99045.47
2024-02-24T14:04:33.044Z,99050.03
2024-02-24T14:07:00.563Z,99051.47
2024-02-24T14:09:28.097Z,99056.56
2024-02-24T14:11:56.162Z,99062.09
2024-02-24T14:14:23.742Z,99057.03
2024-02-24T14:16:51.173Z,99062.56
2024-02-24T14:19:22.631Z,99067.25
2024-02-24T14:21:51.916Z,99059.88
2024-02-24T14:24:19.709Z,99059.16
2024-02-24T14:26:47.242Z,99065.00
2024-02-24T14:29:14.768Z,99067.78
2024-02-24T14:31:42.552Z,99066.41
2024-02-24T14:34:10.153Z,99064.66
2024-02-24T14:36:37.644Z,99069.50
2024-02-24T14:39:06.755Z,99066.00
2024-02-24T14:41:34.280Z,99075.00
2024-02-24T14:44:01.894Z,99075.62
2024-02-24T14:46:29.620Z,99072.69
2024-02-24T14:48:57.231Z,99068.03
2024-02-24T14:51:24.761Z,99069.88
2024-02-24T14:53:52.872Z,99073.53
2024-02-24T14:56:20.602Z,99077.00
2024-02-24T14:58:48.093Z,99080.53
2024-02-24T15:01:16.145Z,99081.44
2024-02-24T15:03:45.867Z,99080.63
2024-02-24T15:06:15.743Z,99086.44
2024-02-24T15:08:43.735Z,99081.56
2024-02-24T15:11:11.230Z,99082.38
2024-02-24T15:13:38.843Z,99085.06
2024-02-24T15:16:08.321Z,99095.94
2024-02-24T15:18:36.218Z,99093.25
2024-02-24T15:21:03.814Z,99106.06
2024-02-24T15:23:31.813Z,99102.34
2024-02-24T15:25:59.311Z,99103.94
2024-02-24T15:28:27.145Z,99094.59
2024-02-24T15:30:54.959Z,99098.34
2024-02-24T15:33:23.191Z,99102.91
2024-02-24T15:35:50.763Z,99103.16
2024-02-24T15:38:18.492Z,99106.63
2024-02-24T15:40:45.975Z,99108.91
2024-02-24T15:43:13.421Z,99112.41
2024-02-24T15:45:41.149Z,99113.97
2024-02-24T15:48:08.834Z,99114.31
2024-02-24T15:50:36.422Z,99120.78
2024-02-24T15:53:04.245Z,99124.00
2024-02-24T15:55:31.763Z,99122.38
2024-02-24T15:58:01.128Z,99128.50
2024-02-24T16:00:29.024Z,99135.88
2024-02-24T16:02:57.035Z,99129.41
2024-02-24T16:05:24.734Z,99134.47
2024-02-24T16:07:52.205Z,99138.13
2024-02-24T16:10:19.940Z,99146.38
2024-02-24T16:12:48.759Z,99153.47
2024-02-24T16:15:16.280Z,99152.91
2024-02-24T16:17:44.063Z,99159.00
2024-02-24T16:20:11.909Z,99167.44
2024-02-24T16:22:40.831Z,99166.59
2024-02-24T16:25:08.845Z,99168.00
2024-02-24T16:27:36.250Z,99175.12
2024-02-24T16:30:04.103Z,99178.66
2024-02-24T16:32:32.011Z,99178.78
2024-02-24T16:34:59.584Z,99185.03
2024-02-24T16:37:27.018Z,99197.94
2024-02-24T16:39:57.711Z,99182.69
2024-02-24T16:42:25.147Z,99194.69
2024-02-24T16:44:52.669Z,99187.88
2024-02-24T16:47:20.443Z,99193.78
2024-02-24T16:49:47.984Z,99203.38
2024-02-24T16:52:15.383Z,99197.25
2024-02-24T16:54:43.027Z,99203.38
2024-02-24T16:57:10.630Z,99213.91
2024-02-24T16:59:39.764Z,99209.59
2024-02-24T17:02:08.268Z,99216.84
2024-02-24T17:04:37.298Z,99215.03
2024-02-24T17:07:07.088Z,99219.09
2024-02-24T17:09:34.971Z,99214.28
2024-02-24T17:12:04.068Z,99222.91
2024-02-24T17:14:31.779Z,99222.13
2024-02-24T17:16:59.442Z,99231.06
2024-02-24T17:19:27.326Z,99231.78
2024-02-24T17:21:54.863Z,99237.91
2024-02-24T17:24:22.532Z,99236.88
2024-02-24T17:26:50.929Z,99246.22
2024-02-24T17:29:18.394Z,99244.81
2024-02-24T17:31:46.123Z,99246.06
2024-02-24T17:34:14.998Z,99240.03
2024-02-24T17:36:46.942Z,99245.84
2024-02-24T17:39:14.675Z,99258.84
2024-02-24T17:41:42.346Z,99256.13
2024-02-24T17:44:10.751Z,99255.31
2024-02-24T17:46:39.312Z,99254.31
2024-02-24T17:49:07.802Z,99251.03
2024-02-24T17:51:35.376Z,99253.31
2024-02-24T17:54:03.271Z,99257.66
2024-02-24T17:56:33.752Z,99255.28
2024-02-24T17:59:01.296Z,99256.06
2024-02-24T18:01:28.977Z,99264.50
2024-02-24T18:03:57.060Z,99267.59
2024-02-24T18:06:24.824Z,99259.41
2024-02-24T18:08:52.406Z,99259.97
2024-02-24T18:11:21.101Z,99262.69
2024-02-24T18:13:48.608Z,99265.12
2024-02-24T18:16:16.160Z,99262.06
2024-02-24T18:18:45.534Z,99255.91
2024-02-24T18:21:18.304Z,99259.81
2024-02-24T18:23:46.289Z,99261.44
2024-02-24T18:26:13.835Z,99264.13
2024-02-24T18:28:44.490Z,99258.78
2024-02-24T18:31:12.337Z,99263.50
2024-02-24T18:33:39.956Z,99264.75
2024-02-24T18:36:07.820Z,99268.47
2024-02-24T18:38:35.562Z,99270.13
2024-02-24T18:41:03.148Z,99266.81
2024-02-24T18:43:31.251Z,99266.22
2024-02-24T18:45:59.217Z,99254.44
2024-02-24T18:48:27.884Z,99262.31
2024-02-24T18:50:56.268Z,99263.56
2024-02-24T18:53:24.585Z,99265.59
2024-02-24T18:55:52.076Z,99274.44
2024-02-24T18:58:19.507Z,99275.91
2024-02-24T19:00:47.539Z,99271.59
2024-02-24T19:03:15.450Z,99277.53
2024-02-24T19:05:43.469Z,99278.78
2024-02-24T19:08:11.228Z,99284.53
2024-02-24T19:10:39.266Z,99292.75
2024-02-24T19:13:06.935Z,99287.00
2024-02-24T19:15:36.024Z,99285.34
2024-02-24T19:18:05.050Z,99279.81
2024-02-24T19:20:32.869Z,99284.94
2024-02-24T19:23:00.792Z,99288.84
2024-02-24T19:25:28.233Z,99287.81
2024-02-24T19:27:55.801Z,99290.09
2024-02-24T19:30:26.105Z,99285.75
2024-02-24T19:32:54.080Z,99291.06
2024-02-24T19:35:21.776Z,99290.47
2024-02-24T19:37:49.692Z,99292.47
2024-02-24T19:40:19.536Z,99297.78
2024-02-24T19:42:47.069Z,99298.84
2024-02-24T19:45:15.058Z,99306.06
2024-02-24T19:47:43.037Z,99305.47
2024-02-24T19:50:10.893Z,99296.62
2024-02-24T19:52:38.693Z,99304.22
2024-02-24T19:55:07.233Z,99312.00
2024-02-24T19:57:34.821Z,99304.41
2024-02-24T20:00:05.193Z,99299.31
2024-02-24T20:02:41.244Z,99304.66
2024-02-24T20:05:09.731Z,99302.34
2024-02-24T20:07:42.590Z,99305.56
2024-02-24T20:10:10.113Z,99300.50
2024-02-24T20:12:37.442Z,99303.38
2024-02-24T20:15:04.916Z,99295.00
2024-02-24T20:17:32.628Z,99290.91
2024-02-24T20:20:00.529Z,99295.59
2024-02-24T20:22:27.902Z,99302.94
2024-02-24T20:24:55.372Z,99295.56
2024-02-24T20:27:22.641Z,99290.75
2024-02-24T20:29:50.233Z,99289.34
2024-02-24T20:32:20.092Z,99295.09
2024-02-24T20:34:47.413Z,99295.97
2024-02-24T20:37:14.716Z,99306.06
2024-02-24T20:39:41.994Z,99307.81
2024-02-24T20:42:09.334Z,99305.91
2024-02-24T20:44:36.689Z,99304.22
2024-02-24T20:47:04.293Z,99304.81
2024-02-24T20:49:31.666Z,99307.59
2024-02-24T20:52:00.535Z,99306.31
2024-02-24T20:54:29.953Z,99308.66
2024-02-24T20:56:57.942Z,99317.09
2024-02-24T20:59:25.445Z,99319.31
2024-02-24T21:01:52.846Z,99315.94
2024-02-24T21:04:20.206Z,99319.47
2024-02-24T21:06:47.580Z,99322.97
2024-02-24T21:09:15.092Z,99324.00
2024-02-24T21:11:42.435Z,99334.91
2024-02-24T21:14:11.458Z,99336.34
2024-02-24T21:16:39.725Z,99343.56
2024-02-24T21:19:08.676Z,99338.13
2024-02-24T21:21:36.402Z,99346.13
2024-02-24T21:24:03.993Z,99332.75
2024-02-24T21:26:31.483Z,99335.25
2024-02-24T21:28:58.910Z,99338.78
2024-02-24T21:31:26.250Z,99337.31
2024-02-24T21:33:53.756Z,99334.41
2024-02-24T21:36:21.140Z,99348.53
2024-02-24T21:38:48.737Z,99354.69
2024-02-24T21:41:19.312Z,99352.13
2024-02-24T21:43:46.795Z,99363.16
2024-02-24T21:46:14.175Z,99371.94
2024-02-24T21:48:41.602Z,99356.50
2024-02-24T21:51:09.174Z,99364.44
2024-02-24T21:53:36.527Z,99365.62
2024-02-24T21:56:04.743Z,99367.69
2024-02-24T21:58:32.365Z,99360.63
2024-02-24T22:00:59.775Z,99353.63
2024-02-24T22:03:27.943Z,99354.19
2024-02-24T22:05:55.631Z,99357.19
2024-02-24T22:08:23.270Z,99356.97
2024-02-24T22:10:51.142Z,99356.19
2024-02-24T22:13:19.647Z,99349.50
2024-02-24T22:15:47.761Z,99356.28
2024-02-24T22:18:15.668Z,99351.41
2024-02-24T22:20:43.339Z,99352.22
2024-02-24T22:23:10.895Z,99361.37
2024-02-24T22:25:38.601Z,99354.94
2024-02-24T22:28:06.404Z,99360.84
2024-02-24T22:30:35.594Z,99357.16
2024-02-24T22:33:03.561Z,99360.34
2024-02-24T22:35:31.126Z,99355.56
2024-02-24T22:37:59.172Z,99357.31
2024-02-24T22:40:26.981Z,99356.25
2024-02-24T22:42:54.382Z,99364.84
2024-02-24T22:45:21.895Z,99352.97
2024-02-24T22:47:49.796Z,99351.53
2024-02-24T22:50:17.409Z,99339.09
2024-02-24T22:52:44.801Z,99334.00
2024-02-24T22:55:12.760Z,99348.75
2024-02-24T22:57:40.387Z,99338.03
2024-02-24T23:00:10.040Z,99332.09
2024-02-24T23:02:37.891Z,99334.09
2024-02-24T23:05:05.737Z,99332.59
2024-02-24T23:07:33.124Z,99339.25
2024-02-24T23:10:00.798Z,99338.16
2024-02-24T23:12:28.326Z,99339.31
2024-02-24T23:14:55.933Z,99342.22
2024-02-24T23:17:24.483Z,99348.34
2024-02-24T23:19:52.072Z,99347.66
2024-02-24T23:22:19.559Z,99347.03
2024-02-24T23:24:47.279Z,99352.25
2024-02-24T23:27:15.102Z,99350.06
2024-02-24T23:29:42.776Z,99354.81
2024-02-24T23:32:11.229Z,99354.59
2024-02-24T23:34:38.766Z,99349.78
2024-02-24T23:37:06.234Z,99345.25
2024-02-24T23:39:33.982Z,99339.97
2024-02-24T23:42:01.481Z,99347.25
2024-02-24T23:44:29.072Z,99353.50
2024-02-24T23:46:56.784Z,99350.41
2024-02-24T23:49:24.338Z,99349.62
2024-02-24T23:51:53.333Z,99354.94
2024-02-24T23:54:21.014Z,99356.94
2024-02-24T23:56:48.489Z,99356.97
2024-02-24T23:59:16.022Z,99351.25
